createdAt,value
2023-04-26T00:02:21.106Z,100479.75
2023-04-26T00:04:52.080Z,100480.66
2023-04-26T00:07:19.373Z,100474.34
2023-04-26T00:09:46.384Z,100471.66
2023-04-26T00:12:13.340Z,100469.66
2023-04-26T00:14:40.268Z,100473.13
2023-04-26T00:17:07.198Z,100473.34
2023-04-26T00:19:34.132Z,100475.19
2023-04-26T00:22:01.152Z,100473.75
2023-04-26T00:24:28.054Z,100476.41
2023-04-26T00:26:56.001Z,100475.13
2023-04-26T00:29:23.152Z,100470.78
2023-04-26T00:31:50.387Z,100470.06
2023-04-26T00:34:17.548Z,100468.69
2023-04-26T00:36:44.480Z,100474.56
2023-04-26T00:39:11.436Z,100466.28
2023-04-26T00:41:38.386Z,100469.72
2023-04-26T00:44:05.531Z,100466.97
2023-04-26T00:46:32.806Z,100468.94
2023-04-26T00:49:00.023Z,100468.28
2023-04-26T00:51:27.163Z,100463.34
2023-04-26T00:53:54.411Z,100464.19
2023-04-26T00:56:22.420Z,100470.13
2023-04-26T00:58:49.937Z,100470.41
2023-04-26T01:01:17.159Z,100468.88
2023-04-26T01:03:46.870Z,100477.00
2023-04-26T01:06:14.031Z,100478.66
2023-04-26T01:08:41.564Z,100477.84
2023-04-26T01:11:08.795Z,100474.53
2023-04-26T01:13:37.153Z,100477.22
2023-04-26T01:16:04.905Z,100470.31
2023-04-26T01:18:31.801Z,100474.22
2023-04-26T01:20:59.231Z,100466.97
2023-04-26T01:23:26.993Z,100465.44
2023-04-26T01:25:56.245Z,100465.13
2023-04-26T01:28:23.305Z,100457.00
2023-04-26T01:30:50.478Z,100468.44
2023-04-26T01:33:17.431Z,100461.34
2023-04-26T01:35:44.325Z,100465.34
2023-04-26T01:38:11.412Z,100461.44
2023-04-26T01:40:38.271Z,100464.84
2023-04-26T01:43:05.166Z,100459.69
2023-04-26T01:45:32.064Z,100465.28
2023-04-26T01:47:59.021Z,100471.13
2023-04-26T01:50:25.956Z,100468.53
2023-04-26T01:52:52.846Z,100469.75
2023-04-26T01:55:20.864Z,100470.59
2023-04-26T01:57:47.737Z,100476.84
2023-04-26T02:00:15.008Z,100479.88
2023-04-26T02:02:41.975Z,100477.59
2023-04-26T02:05:11.222Z,100472.88
2023-04-26T02:07:38.797Z,100470.19
2023-04-26T02:10:06.883Z,100472.53
2023-04-26T02:12:33.860Z,100470.44
2023-04-26T02:15:00.904Z,100461.03
2023-04-26T02:17:29.215Z,100463.69
2023-04-26T02:19:57.005Z,100461.16
2023-04-26T02:22:25.427Z,100478.09
2023-04-26T02:24:52.955Z,100480.56
2023-04-26T02:27:20.442Z,100477.72
2023-04-26T02:29:47.378Z,100475.06
2023-04-26T02:32:14.508Z,100472.00
2023-04-26T02:34:42.525Z,100472.59
2023-04-26T02:37:09.518Z,100475.91
2023-04-26T02:39:36.622Z,100475.97
2023-04-26T02:42:03.677Z,100477.50
2023-04-26T02:44:31.136Z,100474.47
2023-04-26T02:46:58.494Z,100475.53
2023-04-26T02:49:25.495Z,100480.47
2023-04-26T02:51:52.386Z,100475.97
2023-04-26T02:54:19.298Z,100477.56
2023-04-26T02:56:46.586Z,100481.03
2023-04-26T02:59:13.896Z,100478.34
2023-04-26T03:01:40.874Z,100488.91
2023-04-26T03:04:08.043Z,100486.63
2023-04-26T03:06:35.779Z,100485.31
2023-04-26T03:09:02.688Z,100481.16
2023-04-26T03:11:29.557Z,100489.44
2023-04-26T03:13:56.499Z,100489.53
2023-04-26T03:16:23.949Z,100481.56
2023-04-26T03:18:51.347Z,100477.34
2023-04-26T03:21:18.552Z,100480.00
2023-04-26T03:23:46.553Z,100488.00
2023-04-26T03:26:13.478Z,100484.13
2023-04-26T03:28:41.618Z,100489.72
2023-04-26T03:31:08.513Z,100487.63
2023-04-26T03:33:35.477Z,100492.94
2023-04-26T03:36:02.625Z,100492.13
2023-04-26T03:38:29.487Z,100492.75
2023-04-26T03:40:56.527Z,100491.47
2023-04-26T03:43:23.516Z,100489.47
2023-04-26T03:45:52.243Z,100486.38
2023-04-26T03:48:19.227Z,100485.47
2023-04-26T03:50:47.434Z,100479.63
2023-04-26T03:53:14.361Z,100483.75
2023-04-26T03:55:42.344Z,100473.34
2023-04-26T03:58:09.406Z,100474.28
2023-04-26T04:00:42.272Z,100476.19
2023-04-26T04:03:09.710Z,100468.31
2023-04-26T04:05:37.324Z,100476.13
2023-04-26T04:08:04.769Z,100472.50
2023-04-26T04:10:31.756Z,100467.56
2023-04-26T04:12:59.238Z,100474.84
2023-04-26T04:15:26.901Z,100484.94
2023-04-26T04:17:53.843Z,100481.59
2023-04-26T04:20:21.440Z,100472.38
2023-04-26T04:22:48.471Z,100476.44
2023-04-26T04:25:16.374Z,100471.09
2023-04-26T04:27:43.537Z,100477.03
2023-04-26T04:30:12.356Z,100482.59
2023-04-26T04:32:40.283Z,100482.38
2023-04-26T04:35:07.801Z,100483.44
2023-04-26T04:37:34.831Z,100485.34
2023-04-26T04:40:03.228Z,100500.56
2023-04-26T04:42:30.173Z,100496.81
2023-04-26T04:44:57.574Z,100499.84
2023-04-26T04:47:24.696Z,100499.28
2023-04-26T04:49:51.747Z,100499.97
2023-04-26T04:52:21.413Z,100499.66
2023-04-26T04:54:48.734Z,100507.38
2023-04-26T04:57:16.708Z,100499.25
2023-04-26T04:59:43.749Z,100501.66
2023-04-26T05:02:10.760Z,100505.06
2023-04-26T05:04:37.834Z,100516.56
2023-04-26T05:07:06.607Z,100521.50
2023-04-26T05:09:33.772Z,100525.09
2023-04-26T05:12:01.275Z,100518.59
2023-04-26T05:14:30.371Z,100525.25
2023-04-26T05:16:57.683Z,100524.03
2023-04-26T05:19:25.303Z,100521.44
2023-04-26T05:21:54.824Z,100523.63
2023-04-26T05:24:21.799Z,100529.75
2023-04-26T05:26:48.690Z,100530.16
2023-04-26T05:29:15.661Z,100533.47
2023-04-26T05:31:42.684Z,100529.84
2023-04-26T05:34:09.591Z,100525.91
2023-04-26T05:36:36.571Z,100525.38
2023-04-26T05:39:05.752Z,100523.09
2023-04-26T05:41:32.691Z,100520.50
2023-04-26T05:43:59.581Z,100531.75
2023-04-26T05:46:26.968Z,100528.56
2023-04-26T05:48:53.981Z,100529.16
2023-04-26T05:51:21.648Z,100527.06
2023-04-26T05:53:48.604Z,100524.84
2023-04-26T05:56:15.620Z,100533.63
2023-04-26T05:58:42.592Z,100539.44
2023-04-26T06:01:09.469Z,100526.16
2023-04-26T06:03:37.396Z,100525.34
2023-04-26T06:06:04.835Z,100529.41
2023-04-26T06:08:31.731Z,100527.63
2023-04-26T06:10:58.672Z,100542.91
2023-04-26T06:13:26.168Z,100557.91
2023-04-26T06:15:54.334Z,100542.16
2023-04-26T06:18:21.298Z,100553.16
2023-04-26T06:20:48.221Z,100545.53
2023-04-26T06:23:15.340Z,100532.59
2023-04-26T06:25:44.859Z,100540.59
2023-04-26T06:28:14.986Z,100522.03
2023-04-26T06:30:42.968Z,100521.06
2023-04-26T06:33:09.962Z,100524.44
2023-04-26T06:35:43.330Z,100522.16
2023-04-26T06:38:12.621Z,100510.63
2023-04-26T06:40:39.644Z,100528.16
2023-04-26T06:43:06.542Z,100524.13
2023-04-26T06:45:33.436Z,100525.06
2023-04-26T06:48:04.857Z,100516.38
2023-04-26T06:50:31.870Z,100513.09
2023-04-26T06:52:58.866Z,100507.09
2023-04-26T06:55:25.883Z,100506.81
2023-04-26T06:57:52.817Z,100507.56
2023-04-26T07:00:20.321Z,100521.91
2023-04-26T07:02:47.365Z,100513.53
2023-04-26T07:05:15.404Z,100513.38
2023-04-26T07:07:42.409Z,100505.00
2023-04-26T07:10:10.099Z,100489.22
2023-04-26T07:12:37.050Z,100497.53
2023-04-26T07:15:06.641Z,100486.88
2023-04-26T07:17:33.657Z,100500.00
2023-04-26T07:20:01.027Z,100496.41
2023-04-26T07:22:28.159Z,100495.34
2023-04-26T07:24:55.097Z,100483.03
2023-04-26T07:27:22.065Z,100492.81
2023-04-26T07:29:48.985Z,100482.72
2023-04-26T07:32:16.142Z,100497.81
2023-04-26T07:34:43.117Z,100487.38
2023-04-26T07:37:10.012Z,100485.75
2023-04-26T07:39:37.034Z,100483.56
2023-04-26T07:42:04.190Z,100487.44
2023-04-26T07:44:31.133Z,100489.97
2023-04-26T07:46:58.214Z,100515.22
2023-04-26T07:49:25.414Z,100511.28
2023-04-26T07:51:52.480Z,100507.31
2023-04-26T07:54:19.516Z,100502.94
2023-04-26T07:56:46.514Z,100495.75
2023-04-26T07:59:13.441Z,100501.94
2023-04-26T08:01:40.446Z,100486.69
2023-04-26T08:04:08.239Z,100476.34
2023-04-26T08:06:36.039Z,100482.00
2023-04-26T08:09:04.333Z,100486.97
2023-04-26T08:11:31.360Z,100470.94
2023-04-26T08:13:58.397Z,100473.47
2023-04-26T08:16:25.302Z,100479.66
2023-04-26T08:18:52.381Z,100464.28
2023-04-26T08:21:19.259Z,100471.84
2023-04-26T08:23:46.438Z,100462.13
2023-04-26T08:26:13.422Z,100459.84
2023-04-26T08:28:41.023Z,100469.72
2023-04-26T08:31:08.516Z,100465.28
2023-04-26T08:33:35.451Z,100459.38
2023-04-26T08:36:02.431Z,100441.25
2023-04-26T08:38:29.746Z,100439.97
2023-04-26T08:41:03.043Z,100439.72
2023-04-26T08:43:30.292Z,100424.75
2023-04-26T08:46:00.157Z,100416.72
2023-04-26T08:48:31.608Z,100405.81
2023-04-26T08:50:58.807Z,100397.94
2023-04-26T08:53:26.565Z,100381.63
2023-04-26T08:55:54.334Z,100387.00
2023-04-26T08:58:21.859Z,100382.50
2023-04-26T09:00:50.346Z,100369.91
2023-04-26T09:03:17.810Z,100363.72
2023-04-26T09:05:45.714Z,100352.19
2023-04-26T09:08:19.794Z,100341.16
2023-04-26T09:10:46.770Z,100365.72
2023-04-26T09:13:14.504Z,100354.03
2023-04-26T09:15:42.109Z,100353.44
2023-04-26T09:18:20.408Z,100348.16
2023-04-26T09:21:06.971Z,100343.38
2023-04-26T09:23:34.204Z,100335.50
2023-04-26T09:26:21.039Z,100333.69
2023-04-26T09:28:48.447Z,100331.38
2023-04-26T09:31:42.423Z,100347.00
2023-04-26T09:34:12.166Z,100355.41
2023-04-26T09:36:52.603Z,100334.88
2023-04-26T09:39:33.950Z,100327.44
2023-04-26T09:42:01.961Z,100316.34
2023-04-26T09:44:31.219Z,100315.44
2023-04-26T09:47:07.359Z,100328.91
2023-04-26T09:49:44.520Z,100327.47
2023-04-26T09:52:11.616Z,100352.16
2023-04-26T09:54:58.805Z,100330.66
2023-04-26T09:57:25.788Z,100334.56
2023-04-26T09:59:56.317Z,100327.72
2023-04-26T10:02:26.403Z,100312.00
2023-04-26T10:04:56.113Z,100297.66
2023-04-26T10:07:25.831Z,100292.59
2023-04-26T10:09:55.562Z,100311.06
2023-04-26T10:12:22.900Z,100287.59
2023-04-26T10:14:49.775Z,100296.00
2023-04-26T10:17:19.009Z,100302.22
2023-04-26T10:19:48.503Z,100307.09
2023-04-26T10:22:29.288Z,100307.47
2023-04-26T10:24:56.475Z,100288.53
2023-04-26T10:27:44.681Z,100282.78
2023-04-26T10:30:17.187Z,100277.41
2023-04-26T10:32:56.167Z,100268.88
2023-04-26T10:35:33.789Z,100258.66
2023-04-26T10:38:00.834Z,100255.41
2023-04-26T10:40:40.857Z,100219.56
2023-04-26T10:43:14.792Z,100183.53
2023-04-26T10:45:44.130Z,100159.97
2023-04-26T10:48:38.982Z,100184.41
2023-04-26T10:51:08.776Z,100181.09
2023-04-26T10:53:35.698Z,100180.84
2023-04-26T10:56:02.964Z,100159.06
2023-04-26T10:58:30.707Z,100154.22
2023-04-26T11:01:17.885Z,100143.47
2023-04-26T11:04:12.834Z,100158.13
2023-04-26T11:06:53.214Z,100131.72
2023-04-26T11:09:49.511Z,100155.16
2023-04-26T11:12:16.793Z,100128.78
2023-04-26T11:14:46.285Z,100146.25
2023-04-26T11:17:13.790Z,100150.56
2023-04-26T11:19:42.019Z,100152.00
2023-04-26T11:22:09.267Z,100141.03
2023-04-26T11:24:36.891Z,100128.88
2023-04-26T11:27:11.577Z,100114.38
2023-04-26T11:29:39.320Z,100119.19
2023-04-26T11:32:07.065Z,100103.75
2023-04-26T11:34:39.271Z,100110.84
2023-04-26T11:37:07.731Z,100116.50
2023-04-26T11:39:36.140Z,100117.69
2023-04-26T11:42:08.428Z,100129.13
2023-04-26T11:44:37.411Z,100114.84
2023-04-26T11:47:06.382Z,100099.41
2023-04-26T11:49:36.316Z,100121.88
2023-04-26T11:52:04.981Z,100112.75
2023-04-26T11:54:37.731Z,100096.97
2023-04-26T11:57:19.101Z,100116.16
2023-04-26T11:59:46.758Z,100120.06
2023-04-26T12:02:14.364Z,100109.22
2023-04-26T12:04:41.836Z,100114.19
2023-04-26T12:07:09.574Z,100126.50
2023-04-26T12:09:44.369Z,100115.41
2023-04-26T12:12:11.771Z,100134.13
2023-04-26T12:14:40.425Z,100147.22
2023-04-26T12:17:08.017Z,100141.41
2023-04-26T12:19:40.104Z,100137.59
2023-04-26T12:22:08.579Z,100122.00
2023-04-26T12:24:37.264Z,100120.28
2023-04-26T12:27:06.872Z,100131.38
2023-04-26T12:29:34.790Z,100114.78
2023-04-26T12:32:02.725Z,100126.50
2023-04-26T12:34:29.933Z,100122.97
2023-04-26T12:36:56.883Z,100123.72
2023-04-26T12:39:23.838Z,100148.09
2023-04-26T12:41:50.807Z,100133.53
2023-04-26T12:44:19.070Z,100138.97
2023-04-26T12:46:48.410Z,100156.41
2023-04-26T12:49:15.420Z,100145.19
2023-04-26T12:51:42.342Z,100154.63
2023-04-26T12:54:09.348Z,100157.84
2023-04-26T12:56:40.693Z,100158.25
2023-04-26T12:59:07.664Z,100160.06
2023-04-26T13:01:34.612Z,100158.84
2023-04-26T13:04:04.703Z,100135.91
2023-04-26T13:06:32.425Z,100160.72
2023-04-26T13:08:59.989Z,100149.91
2023-04-26T13:11:27.075Z,100143.69
2023-04-26T13:13:54.156Z,100162.38
2023-04-26T13:16:21.201Z,100146.97
2023-04-26T13:18:48.265Z,100143.78
2023-04-26T13:21:15.253Z,100142.34
2023-04-26T13:23:42.348Z,100139.03
2023-04-26T13:26:09.227Z,100135.88
2023-04-26T13:28:37.149Z,100119.38
2023-04-26T13:31:04.225Z,100126.56
2023-04-26T13:33:31.240Z,100136.59
2023-04-26T13:35:58.156Z,100127.09
2023-04-26T13:38:26.922Z,100103.66
2023-04-26T13:40:54.273Z,100114.50
2023-04-26T13:43:21.166Z,100123.63
2023-04-26T13:45:48.097Z,100133.34
2023-04-26T13:48:15.235Z,100113.34
2023-04-26T13:50:42.433Z,100114.75
2023-04-26T13:53:09.385Z,100116.59
2023-04-26T13:55:36.309Z,100109.03
2023-04-26T13:58:03.270Z,100127.34
2023-04-26T14:00:30.195Z,100133.03
2023-04-26T14:02:57.310Z,100127.59
2023-04-26T14:05:24.957Z,100119.50
2023-04-26T14:07:54.231Z,100115.41
2023-04-26T14:10:21.967Z,100112.97
2023-04-26T14:12:48.919Z,100105.41
2023-04-26T14:15:16.071Z,100117.84
2023-04-26T14:17:43.202Z,100130.84
2023-04-26T14:20:10.820Z,100125.94
2023-04-26T14:22:37.740Z,100123.22
2023-04-26T14:25:05.200Z,100116.06
2023-04-26T14:27:32.671Z,100106.06
2023-04-26T14:29:59.618Z,100105.06
2023-04-26T14:32:26.896Z,100105.84
2023-04-26T14:34:53.831Z,100109.47
2023-04-26T14:37:22.741Z,100102.63
2023-04-26T14:39:53.052Z,100106.59
2023-04-26T14:42:20.098Z,100091.38
2023-04-26T14:44:49.930Z,100090.59
2023-04-26T14:47:16.995Z,100091.38
2023-04-26T14:49:43.975Z,100088.50
2023-04-26T14:52:11.036Z,100094.66
2023-04-26T14:54:39.428Z,100072.34
2023-04-26T14:57:06.907Z,100073.50
2023-04-26T14:59:33.957Z,100070.25
2023-04-26T15:02:01.131Z,100078.66
2023-04-26T15:04:28.726Z,100094.50
2023-04-26T15:06:56.887Z,100091.69
2023-04-26T15:09:25.430Z,100090.34
2023-04-26T15:11:52.444Z,100097.69
2023-04-26T15:14:19.480Z,100090.91
2023-04-26T15:16:46.601Z,100088.56
2023-04-26T15:19:13.675Z,100091.19
2023-04-26T15:21:40.861Z,100088.72
2023-04-26T15:24:08.359Z,100103.50
2023-04-26T15:26:35.321Z,100091.28
2023-04-26T15:29:02.382Z,100087.06
2023-04-26T15:31:29.379Z,100088.59
2023-04-26T15:33:56.844Z,100086.13
2023-04-26T15:36:24.026Z,100075.50
2023-04-26T15:38:51.005Z,100077.84
2023-04-26T15:41:18.052Z,100086.78
2023-04-26T15:43:45.113Z,100075.19
2023-04-26T15:46:15.551Z,100071.94
2023-04-26T15:48:42.702Z,100090.63
2023-04-26T15:51:09.688Z,100082.31
2023-04-26T15:53:43.126Z,100089.41
2023-04-26T15:56:17.915Z,100084.50
2023-04-26T15:58:47.039Z,100088.03
2023-04-26T16:01:14.965Z,100095.16
2023-04-26T16:03:44.589Z,100086.41
2023-04-26T16:06:13.568Z,100079.31
2023-04-26T16:08:41.181Z,100081.41
2023-04-26T16:11:08.353Z,100077.69
2023-04-26T16:13:35.575Z,100082.13
2023-04-26T16:16:06.902Z,100075.16
2023-04-26T16:18:34.681Z,100079.56
2023-04-26T16:21:06.849Z,100096.19
2023-04-26T16:23:33.758Z,100080.72
2023-04-26T16:26:01.455Z,100084.81
2023-04-26T16:28:28.625Z,100075.59
2023-04-26T16:30:55.979Z,100076.31
2023-04-26T16:33:23.622Z,100081.22
2023-04-26T16:35:52.656Z,100088.34
2023-04-26T16:38:20.023Z,100089.44
2023-04-26T16:40:58.589Z,100101.38
2023-04-26T16:43:30.830Z,100097.84
2023-04-26T16:46:08.569Z,100103.66
2023-04-26T16:48:38.118Z,100119.81
2023-04-26T16:51:07.866Z,100115.03
2023-04-26T16:53:36.093Z,100109.34
2023-04-26T16:56:03.726Z,100113.00
2023-04-26T16:58:30.803Z,100110.06
2023-04-26T17:00:58.051Z,100099.59
2023-04-26T17:03:25.424Z,100105.28
2023-04-26T17:05:52.730Z,100095.72
2023-04-26T17:08:20.142Z,100095.84
2023-04-26T17:10:47.818Z,100093.56
2023-04-26T17:13:15.225Z,100111.53
2023-04-26T17:15:43.323Z,100116.63
2023-04-26T17:18:10.928Z,100132.50
2023-04-26T17:20:38.101Z,100140.03
2023-04-26T17:23:05.345Z,100148.69
2023-04-26T17:25:32.255Z,100149.69
2023-04-26T17:27:59.275Z,100148.69
2023-04-26T17:30:26.351Z,100158.97
2023-04-26T17:32:53.375Z,100160.00
2023-04-26T17:35:20.537Z,100171.25
2023-04-26T17:37:50.000Z,100171.91
2023-04-26T17:40:18.704Z,100186.09
2023-04-26T17:42:46.548Z,100184.78
2023-04-26T17:45:14.642Z,100185.97
2023-04-26T17:47:42.824Z,100193.28
2023-04-26T17:50:10.521Z,100199.00
2023-04-26T17:52:38.062Z,100206.69
2023-04-26T17:55:08.169Z,100200.59
2023-04-26T17:57:36.200Z,100198.03
2023-04-26T18:00:04.298Z,100205.84
2023-04-26T18:02:31.438Z,100202.88
2023-04-26T18:04:58.585Z,100224.56
2023-04-26T18:07:26.180Z,100221.75
2023-04-26T18:09:53.109Z,100234.09
2023-04-26T18:12:20.115Z,100252.84
2023-04-26T18:14:47.126Z,100255.38
2023-04-26T18:17:17.709Z,100263.72
2023-04-26T18:19:44.703Z,100281.16
2023-04-26T18:22:11.881Z,100267.94
2023-04-26T18:24:38.903Z,100267.72
2023-04-26T18:27:06.612Z,100283.97
2023-04-26T18:29:33.598Z,100278.13
2023-04-26T18:32:01.031Z,100280.88
2023-04-26T18:34:27.989Z,100282.78
2023-04-26T18:36:54.965Z,100283.09
2023-04-26T18:39:21.947Z,100290.22
2023-04-26T18:41:50.805Z,100293.63
2023-04-26T18:44:18.492Z,100291.59
2023-04-26T18:46:45.755Z,100292.59
2023-04-26T18:49:12.748Z,100313.03
2023-04-26T18:51:39.828Z,100309.88
2023-04-26T18:54:06.713Z,100315.91
2023-04-26T18:56:33.615Z,100320.03
2023-04-26T18:59:00.854Z,100318.78
2023-04-26T19:01:27.806Z,100320.31
2023-04-26T19:03:55.564Z,100318.66
2023-04-26T19:06:22.689Z,100327.84
2023-04-26T19:08:49.649Z,100327.03
2023-04-26T19:11:16.942Z,100319.25
2023-04-26T19:13:44.352Z,100324.41
2023-04-26T19:16:11.815Z,100326.72
2023-04-26T19:18:41.902Z,100323.34
2023-04-26T19:21:10.167Z,100335.41
2023-04-26T19:23:37.565Z,100347.06
2023-04-26T19:26:09.446Z,100347.91
2023-04-26T19:28:37.897Z,100356.09
2023-04-26T19:31:05.263Z,100374.09
2023-04-26T19:33:32.886Z,100385.84
2023-04-26T19:35:59.880Z,100380.59
2023-04-26T19:38:26.825Z,100364.97
2023-04-26T19:40:53.736Z,100366.03
2023-04-26T19:43:21.072Z,100380.50
2023-04-26T19:45:48.135Z,100391.56
2023-04-26T19:48:15.371Z,100394.13
2023-04-26T19:50:46.924Z,100385.84
2023-04-26T19:53:15.402Z,100377.28
2023-04-26T19:55:43.065Z,100377.97
2023-04-26T19:58:11.005Z,100370.78
2023-04-26T20:00:39.802Z,100376.00
2023-04-26T20:03:06.969Z,100382.97
2023-04-26T20:05:34.229Z,100392.63
2023-04-26T20:08:01.777Z,100388.56
2023-04-26T20:10:33.989Z,100395.78
2023-04-26T20:13:01.476Z,100400.88
2023-04-26T20:15:30.472Z,100406.22
2023-04-26T20:17:58.717Z,100406.81
2023-04-26T20:20:25.668Z,100408.09
2023-04-26T20:22:52.753Z,100419.63
2023-04-26T20:25:19.967Z,100405.09
2023-04-26T20:27:47.719Z,100403.03
2023-04-26T20:30:15.766Z,100396.72
2023-04-26T20:32:43.205Z,100403.84
2023-04-26T20:35:10.400Z,100410.69
2023-04-26T20:37:37.311Z,100408.75
2023-04-26T20:40:05.102Z,100407.94
2023-04-26T20:42:32.024Z,100406.59
2023-04-26T20:45:01.877Z,100409.75
2023-04-26T20:47:29.542Z,100412.38
2023-04-26T20:49:56.649Z,100410.19
2023-04-26T20:52:23.673Z,100419.44
2023-04-26T20:54:50.586Z,100417.00
2023-04-26T20:57:17.572Z,100408.78
2023-04-26T20:59:44.549Z,100404.84
2023-04-26T21:02:11.683Z,100417.94
2023-04-26T21:04:41.706Z,100416.19
2023-04-26T21:07:10.479Z,100408.25
2023-04-26T21:09:37.832Z,100407.16
2023-04-26T21:12:05.571Z,100409.19
2023-04-26T21:14:32.559Z,100417.41
2023-04-26T21:17:01.053Z,100414.94
2023-04-26T21:19:28.102Z,100426.94
2023-04-26T21:21:55.009Z,100431.03
2023-04-26T21:24:22.088Z,100431.72
2023-04-26T21:26:48.956Z,100423.25
2023-04-26T21:29:16.455Z,100427.31
2023-04-26T21:31:43.408Z,100442.06
2023-04-26T21:34:10.447Z,100452.22
2023-04-26T21:36:37.320Z,100460.53
2023-04-26T21:39:04.327Z,100452.97
2023-04-26T21:41:31.305Z,100455.06
2023-04-26T21:43:58.691Z,100455.00
2023-04-26T21:46:26.228Z,100447.28
2023-04-26T21:48:53.288Z,100455.13
2023-04-26T21:51:20.182Z,100452.06
2023-04-26T21:53:47.160Z,100455.00
2023-04-26T21:56:14.718Z,100445.94
2023-04-26T21:58:42.468Z,100449.69
2023-04-26T22:01:11.397Z,100433.88
2023-04-26T22:03:38.989Z,100433.88
2023-04-26T22:06:07.741Z,100441.78
2023-04-26T22:08:35.150Z,100442.44
2023-04-26T22:11:02.765Z,100438.59
2023-04-26T22:13:30.782Z,100437.13
2023-04-26T22:15:57.770Z,100433.81
2023-04-26T22:18:25.984Z,100434.34
2023-04-26T22:20:53.608Z,100434.31
2023-04-26T22:23:20.859Z,100420.41
2023-04-26T22:25:47.740Z,100421.09
2023-04-26T22:28:15.598Z,100422.59
2023-04-26T22:30:42.584Z,100427.22
2023-04-26T22:33:11.067Z,100426.75
2023-04-26T22:35:38.347Z,100441.63
2023-04-26T22:38:05.491Z,100441.78
2023-04-26T22:40:32.684Z,100452.75
2023-04-26T22:42:59.645Z,100451.47
2023-04-26T22:45:26.992Z,100433.47
2023-04-26T22:47:54.009Z,100424.75
2023-04-26T22:50:21.547Z,100413.84
2023-04-26T22:52:49.674Z,100413.03
2023-04-26T22:55:17.380Z,100412.97
2023-04-26T22:57:44.455Z,100417.06
2023-04-26T23:00:12.604Z,100418.09
2023-04-26T23:02:40.220Z,100414.63
2023-04-26T23:05:10.849Z,100428.66
2023-04-26T23:07:39.848Z,100426.06
2023-04-26T23:10:07.791Z,100431.50
2023-04-26T23:12:36.012Z,100435.09
2023-04-26T23:15:05.348Z,100435.28
2023-04-26T23:17:33.999Z,100458.53
2023-04-26T23:20:01.632Z,100464.41
2023-04-26T23:22:28.543Z,100464.41
2023-04-26T23:24:55.865Z,100480.06
2023-04-26T23:27:24.685Z,100471.81
2023-04-26T23:29:51.736Z,100471.59
2023-04-26T23:32:18.669Z,100475.00
2023-04-26T23:34:45.590Z,100479.94
2023-04-26T23:37:12.529Z,100469.94
2023-04-26T23:39:39.429Z,100465.72
2023-04-26T23:42:06.698Z,100451.50
2023-04-26T23:44:33.837Z,100461.31
2023-04-26T23:47:00.887Z,100456.38
2023-04-26T23:49:27.953Z,100459.19
2023-04-26T23:51:55.046Z,100452.88
2023-04-26T23:54:22.019Z,100441.59
2023-04-26T23:56:48.910Z,100432.44
2023-04-26T23:59:16.814Z,100422.06
